sensor_id;sensor_type;location;lat;lon;timestamp;temperature;humidity
11629;DHT22;5870;52.320;4.970;2022-07-29T00:00:14;21.70;99.90
11629;DHT22;5870;52.320;4.970;2022-07-29T00:02:40;21.60;99.90
11629;DHT22;5870;52.320;4.970;2022-07-29T00:05:08;21.60;99.90
11629;DHT22;5870;52.320;4.970;2022-07-29T00:07:33;21.60;99.90
11629;DHT22;5870;52.320;4.970;2022-07-29T00:09:59;21.60;99.90
11629;DHT22;5870;52.320;4.970;2022-07-29T00:12:25;21.60;99.90
11629;DHT22;5870;52.320;4.970;2022-07-29T00:14:50;21.60;99.90
11629;DHT22;5870;52.320;4.970;2022-07-29T00:17:16;21.60;99.90
11629;DHT22;5870;52.320;4.970;2022-07-29T00:19:42;21.50;99.90
11629;DHT22;5870;52.320;4.970;2022-07-29T00:22:07;21.50;99.90
11629;DHT22;5870;52.320;4.970;2022-07-29T00:24:33;21.60;99.90
11629;DHT22;5870;52.320;4.970;2022-07-29T00:26:59;21.50;99.90
11629;DHT22;5870;52.320;4.970;2022-07-29T00:29:24;21.50;99.90
11629;DHT22;5870;52.320;4.970;2022-07-29T00:31:50;21.50;99.90
11629;DHT22;5870;52.320;4.970;2022-07-29T00:34:16;21.50;99.90
11629;DHT22;5870;52.320;4.970;2022-07-29T00:37:00;21.50;99.90
11629;DHT22;5870;52.320;4.970;2022-07-29T00:39:26;21.50;99.90
11629;DHT22;5870;52.320;4.970;2022-07-29T00:41:51;21.50;99.90
11629;DHT22;5870;52.320;4.970;2022-07-29T00:44:17;21.50;99.90
11629;DHT22;5870;52.320;4.970;2022-07-29T00:46:43;21.50;99.90
11629;DHT22;5870;52.320;4.970;2022-07-29T00:49:08;21.50;99.90
11629;DHT22;5870;52.320;4.970;2022-07-29T00:51:35;21.50;99.90
11629;DHT22;5870;52.320;4.970;2022-07-29T00:54:02;21.50;99.90
11629;DHT22;5870;52.320;4.970;2022-07-29T00:56:30;21.50;99.90
11629;DHT22;5870;52.320;4.970;2022-07-29T00:58:56;21.50;99.90
11629;DHT22;5870;52.320;4.970;2022-07-29T01:01:23;21.40;99.90
11629;DHT22;5870;52.320;4.970;2022-07-29T01:03:48;21.50;99.90
11629;DHT22;5870;52.320;4.970;2022-07-29T01:06:16;21.50;99.90
11629;DHT22;5870;52.320;4.970;2022-07-29T01:08:42;21.50;99.90
11629;DHT22;5870;52.320;4.970;2022-07-29T01:11:08;21.50;99.90
11629;DHT22;5870;52.320;4.970;2022-07-29T01:13:35;21.50;99.90
11629;DHT22;5870;52.320;4.970;2022-07-29T01:16:31;21.40;99.90
11629;DHT22;5870;52.320;4.970;2022-07-29T01:19:04;21.50;99.90
11629;DHT22;5870;52.320;4.970;2022-07-29T01:21:51;21.40;99.90
11629;DHT22;5870;52.320;4.970;2022-07-29T01:27:26;21.40;99.90
11629;DHT22;5870;52.320;4.970;2022-07-29T01:29:59;21.40;99.90
11629;DHT22;5870;52.320;4.970;2022-07-29T01:32:29;21.50;99.90
11629;DHT22;5870;52.320;4.970;2022-07-29T01:35:19;21.40;99.90
11629;DHT22;5870;52.320;4.970;2022-07-29T01:37:55;21.40;99.90
11629;DHT22;5870;52.320;4.970;2022-07-29T01:40:48;21.40;99.90
11629;DHT22;5870;52.320;4.970;2022-07-29T01:43:20;21.40;99.90
11629;DHT22;5870;52.320;4.970;2022-07-29T01:46:02;21.50;99.90
11629;DHT22;5870;52.320;4.970;2022-07-29T01:48:36;21.50;99.90
11629;DHT22;5870;52.320;4.970;2022-07-29T01:51:14;21.50;99.90
11629;DHT22;5870;52.320;4.970;2022-07-29T01:54:04;21.50;99.90
11629;DHT22;5870;52.320;4.970;2022-07-29T01:56:33;21.50;99.90
11629;DHT22;5870;52.320;4.970;2022-07-29T01:59:03;21.60;99.90
11629;DHT22;5870;52.320;4.970;2022-07-29T02:01:31;21.50;99.90
11629;DHT22;5870;52.320;4.970;2022-07-29T02:03:59;21.50;99.90
11629;DHT22;5870;52.320;4.970;2022-07-29T02:06:27;21.50;99.90
11629;DHT22;5870;52.320;4.970;2022-07-29T02:08:56;21.50;99.90
11629;DHT22;5870;52.320;4.970;2022-07-29T02:11:23;21.40;99.90
11629;DHT22;5870;52.320;4.970;2022-07-29T02:13:52;21.40;99.90
11629;DHT22;5870;52.320;4.970;2022-07-29T02:16:20;21.40;99.90
11629;DHT22;5870;52.320;4.970;2022-07-29T02:18:49;21.30;99.90
11629;DHT22;5870;52.320;4.970;2022-07-29T02:21:19;21.30;99.90
11629;DHT22;5870;52.320;4.970;2022-07-29T02:23:48;21.30;99.90
11629;DHT22;5870;52.320;4.970;2022-07-29T02:26:14;21.30;99.90
11629;DHT22;5870;52.320;4.970;2022-07-29T02:28:42;21.30;99.90
11629;DHT22;5870;52.320;4.970;2022-07-29T02:31:09;21.30;99.90
11629;DHT22;5870;52.320;4.970;2022-07-29T02:33:36;21.30;99.90
11629;DHT22;5870;52.320;4.970;2022-07-29T02:36:03;21.20;99.90
11629;DHT22;5870;52.320;4.970;2022-07-29T02:38:30;21.30;99.90
11629;DHT22;5870;52.320;4.970;2022-07-29T02:41:22;21.20;99.90
11629;DHT22;5870;52.320;4.970;2022-07-29T02:43:52;21.30;99.90
11629;DHT22;5870;52.320;4.970;2022-07-29T02:46:23;21.30;99.90
11629;DHT22;5870;52.320;4.970;2022-07-29T02:48:59;21.30;99.90
11629;DHT22;5870;52.320;4.970;2022-07-29T02:51:49;21.30;99.90
11629;DHT22;5870;52.320;4.970;2022-07-29T02:55:22;21.20;99.90
11629;DHT22;5870;52.320;4.970;2022-07-29T02:59:59;21.20;99.90
11629;DHT22;5870;52.320;4.970;2022-07-29T03:02:28;21.20;99.90
11629;DHT22;5870;52.320;4.970;2022-07-29T03:04:57;21.20;99.90
11629;DHT22;5870;52.320;4.970;2022-07-29T03:07:24;21.20;99.90
11629;DHT22;5870;52.320;4.970;2022-07-29T03:09:51;21.20;99.90
11629;DHT22;5870;52.320;4.970;2022-07-29T03:12:17;21.20;99.90
11629;DHT22;5870;52.320;4.970;2022-07-29T03:14:43;21.20;99.90
11629;DHT22;5870;52.320;4.970;2022-07-29T03:17:09;21.20;99.90
11629;DHT22;5870;52.320;4.970;2022-07-29T03:19:35;21.20;99.90
11629;DHT22;5870;52.320;4.970;2022-07-29T03:22:01;21.10;99.90
11629;DHT22;5870;52.320;4.970;2022-07-29T03:24:30;21.10;99.90
11629;DHT22;5870;52.320;4.970;2022-07-29T03:26:56;21.10;99.90
11629;DHT22;5870;52.320;4.970;2022-07-29T03:29:23;21.10;99.90
11629;DHT22;5870;52.320;4.970;2022-07-29T03:31:49;21.10;99.90
11629;DHT22;5870;52.320;4.970;2022-07-29T03:34:15;21.10;99.90
11629;DHT22;5870;52.320;4.970;2022-07-29T03:36:40;21.10;99.90
11629;DHT22;5870;52.320;4.970;2022-07-29T03:39:07;21.10;99.90
11629;DHT22;5870;52.320;4.970;2022-07-29T03:41:35;21.10;99.90
11629;DHT22;5870;52.320;4.970;2022-07-29T03:44:02;21.10;99.90
11629;DHT22;5870;52.320;4.970;2022-07-29T03:46:29;21.20;99.90
11629;DHT22;5870;52.320;4.970;2022-07-29T03:48:59;21.20;99.90
11629;DHT22;5870;52.320;4.970;2022-07-29T03:51:26;21.10;99.90
11629;DHT22;5870;52.320;4.970;2022-07-29T03:53:52;21.20;99.90
11629;DHT22;5870;52.320;4.970;2022-07-29T03:56:22;21.20;99.90
11629;DHT22;5870;52.320;4.970;2022-07-29T03:58:52;21.20;99.90
11629;DHT22;5870;52.320;4.970;2022-07-29T04:01:19;21.20;99.90
11629;DHT22;5870;52.320;4.970;2022-07-29T04:03:45;21.10;99.90
11629;DHT22;5870;52.320;4.970;2022-07-29T04:06:11;21.10;99.90
11629;DHT22;5870;52.320;4.970;2022-07-29T04:08:37;21.10;99.90
11629;DHT22;5870;52.320;4.970;2022-07-29T04:11:04;21.00;99.90
11629;DHT22;5870;52.320;4.970;2022-07-29T04:13:31;21.00;99.90
11629;DHT22;5870;52.320;4.970;2022-07-29T04:15:57;21.10;99.90
11629;DHT22;5870;52.320;4.970;2022-07-29T04:18:23;21.00;99.90
11629;DHT22;5870;52.320;4.970;2022-07-29T04:20:49;21.00;99.90
11629;DHT22;5870;52.320;4.970;2022-07-29T04:23:14;21.00;99.90
11629;DHT22;5870;52.320;4.970;2022-07-29T04:25:41;21.00;99.90
11629;DHT22;5870;52.320;4.970;2022-07-29T04:28:07;21.00;99.90
11629;DHT22;5870;52.320;4.970;2022-07-29T04:30:34;21.00;99.90
11629;DHT22;5870;52.320;4.970;2022-07-29T04:33:01;21.00;99.90
11629;DHT22;5870;52.320;4.970;2022-07-29T04:35:28;21.00;99.90
11629;DHT22;5870;52.320;4.970;2022-07-29T04:37:54;21.00;99.90
11629;DHT22;5870;52.320;4.970;2022-07-29T04:40:20;21.00;99.90
11629;DHT22;5870;52.320;4.970;2022-07-29T04:42:46;21.00;99.90
11629;DHT22;5870;52.320;4.970;2022-07-29T04:45:11;21.00;99.90
11629;DHT22;5870;52.320;4.970;2022-07-29T04:47:37;21.00;99.90
11629;DHT22;5870;52.320;4.970;2022-07-29T04:50:03;21.00;99.90
11629;DHT22;5870;52.320;4.970;2022-07-29T04:52:28;21.00;99.90
11629;DHT22;5870;52.320;4.970;2022-07-29T04:54:54;21.00;99.90
11629;DHT22;5870;52.320;4.970;2022-07-29T04:57:20;21.00;99.90
11629;DHT22;5870;52.320;4.970;2022-07-29T04:59:45;21.00;99.90
11629;DHT22;5870;52.320;4.970;2022-07-29T05:02:11;21.00;99.90
11629;DHT22;5870;52.320;4.970;2022-07-29T05:04:36;21.00;99.90
11629;DHT22;5870;52.320;4.970;2022-07-29T05:07:02;21.00;99.90
11629;DHT22;5870;52.320;4.970;2022-07-29T05:09:28;21.00;99.90
11629;DHT22;5870;52.320;4.970;2022-07-29T05:11:53;21.00;99.90
11629;DHT22;5870;52.320;4.970;2022-07-29T05:14:19;21.00;99.90
11629;DHT22;5870;52.320;4.970;2022-07-29T05:16:45;21.00;99.90
11629;DHT22;5870;52.320;4.970;2022-07-29T05:19:10;21.00;99.90
11629;DHT22;5870;52.320;4.970;2022-07-29T05:21:36;21.10;99.90
11629;DHT22;5870;52.320;4.970;2022-07-29T05:24:02;21.00;99.90
11629;DHT22;5870;52.320;4.970;2022-07-29T05:26:27;21.00;99.90
11629;DHT22;5870;52.320;4.970;2022-07-29T05:28:53;21.10;99.90
11629;DHT22;5870;52.320;4.970;2022-07-29T05:31:20;21.00;99.90
11629;DHT22;5870;52.320;4.970;2022-07-29T05:33:45;21.00;99.90
11629;DHT22;5870;52.320;4.970;2022-07-29T05:36:11;21.00;99.90
11629;DHT22;5870;52.320;4.970;2022-07-29T05:38:37;21.00;99.90
11629;DHT22;5870;52.320;4.970;2022-07-29T05:41:03;21.00;99.90
11629;DHT22;5870;52.320;4.970;2022-07-29T05:43:30;21.00;99.90
11629;DHT22;5870;52.320;4.970;2022-07-29T05:45:55;21.00;99.90
11629;DHT22;5870;52.320;4.970;2022-07-29T05:48:21;21.00;99.90
11629;DHT22;5870;52.320;4.970;2022-07-29T05:50:47;21.10;99.90
11629;DHT22;5870;52.320;4.970;2022-07-29T05:53:12;21.10;99.90
11629;DHT22;5870;52.320;4.970;2022-07-29T05:55:38;21.10;99.90
11629;DHT22;5870;52.320;4.970;2022-07-29T05:58:04;21.10;99.90
11629;DHT22;5870;52.320;4.970;2022-07-29T06:00:29;21.10;99.90
11629;DHT22;5870;52.320;4.970;2022-07-29T06:02:55;21.10;99.90
11629;DHT22;5870;52.320;4.970;2022-07-29T06:05:22;21.10;99.90
11629;DHT22;5870;52.320;4.970;2022-07-29T06:07:48;21.20;99.90
11629;DHT22;5870;52.320;4.970;2022-07-29T06:10:13;21.10;99.90
11629;DHT22;5870;52.320;4.970;2022-07-29T06:12:39;21.10;99.90
11629;DHT22;5870;52.320;4.970;2022-07-29T06:15:05;21.20;99.90
11629;DHT22;5870;52.320;4.970;2022-07-29T06:17:31;21.20;99.90
11629;DHT22;5870;52.320;4.970;2022-07-29T06:19:56;21.20;99.90
11629;DHT22;5870;52.320;4.970;2022-07-29T06:22:22;21.30;99.90
11629;DHT22;5870;52.320;4.970;2022-07-29T06:24:47;21.30;99.90
11629;DHT22;5870;52.320;4.970;2022-07-29T06:27:13;21.40;99.90
11629;DHT22;5870;52.320;4.970;2022-07-29T06:29:39;21.30;99.90
11629;DHT22;5870;52.320;4.970;2022-07-29T06:32:05;21.40;99.90
11629;DHT22;5870;52.320;4.970;2022-07-29T06:34:30;21.40;99.90
11629;DHT22;5870;52.320;4.970;2022-07-29T06:36:56;21.40;99.90
11629;DHT22;5870;52.320;4.970;2022-07-29T06:39:22;21.50;99.90
11629;DHT22;5870;52.320;4.970;2022-07-29T06:41:48;21.40;99.90
11629;DHT22;5870;52.320;4.970;2022-07-29T06:44:15;21.40;99.90
11629;DHT22;5870;52.320;4.970;2022-07-29T06:46:40;21.50;99.90
11629;DHT22;5870;52.320;4.970;2022-07-29T06:49:07;21.50;99.90
11629;DHT22;5870;52.320;4.970;2022-07-29T06:51:33;21.50;99.90
11629;DHT22;5870;52.320;4.970;2022-07-29T06:53:58;21.70;99.90
11629;DHT22;5870;52.320;4.970;2022-07-29T06:56:24;21.80;99.90
11629;DHT22;5870;52.320;4.970;2022-07-29T06:58:50;21.90;99.90
11629;DHT22;5870;52.320;4.970;2022-07-29T07:01:16;22.00;99.90
11629;DHT22;5870;52.320;4.970;2022-07-29T07:03:41;22.10;99.90
11629;DHT22;5870;52.320;4.970;2022-07-29T07:06:07;22.10;99.90
11629;DHT22;5870;52.320;4.970;2022-07-29T07:08:33;22.10;99.90
11629;DHT22;5870;52.320;4.970;2022-07-29T07:10:59;22.20;99.90
11629;DHT22;5870;52.320;4.970;2022-07-29T07:13:25;22.20;99.90
11629;DHT22;5870;52.320;4.970;2022-07-29T07:15:51;22.20;99.90
11629;DHT22;5870;52.320;4.970;2022-07-29T07:18:18;22.20;99.90
11629;DHT22;5870;52.320;4.970;2022-07-29T07:20:44;22.30;99.90
11629;DHT22;5870;52.320;4.970;2022-07-29T07:23:10;22.30;99.90
11629;DHT22;5870;52.320;4.970;2022-07-29T07:25:36;22.30;99.90
11629;DHT22;5870;52.320;4.970;2022-07-29T07:28:02;22.30;99.90
11629;DHT22;5870;52.320;4.970;2022-07-29T07:30:28;22.30;99.90
11629;DHT22;5870;52.320;4.970;2022-07-29T07:32:54;22.30;99.90
11629;DHT22;5870;52.320;4.970;2022-07-29T07:35:21;22.30;99.90
11629;DHT22;5870;52.320;4.970;2022-07-29T07:37:46;22.30;99.90
11629;DHT22;5870;52.320;4.970;2022-07-29T07:40:12;22.30;99.90
11629;DHT22;5870;52.320;4.970;2022-07-29T07:42:39;22.40;99.90
11629;DHT22;5870;52.320;4.970;2022-07-29T07:45:05;22.30;99.90
11629;DHT22;5870;52.320;4.970;2022-07-29T07:47:31;22.40;99.90
11629;DHT22;5870;52.320;4.970;2022-07-29T07:49:57;22.40;99.90
11629;DHT22;5870;52.320;4.970;2022-07-29T07:52:23;22.40;99.90
11629;DHT22;5870;52.320;4.970;2022-07-29T07:54:48;22.40;99.90
11629;DHT22;5870;52.320;4.970;2022-07-29T07:57:15;22.40;99.90
11629;DHT22;5870;52.320;4.970;2022-07-29T07:59:41;22.40;99.90
11629;DHT22;5870;52.320;4.970;2022-07-29T08:02:07;22.40;99.90
11629;DHT22;5870;52.320;4.970;2022-07-29T08:04:33;22.40;99.90
11629;DHT22;5870;52.320;4.970;2022-07-29T08:06:59;22.10;99.90
11629;DHT22;5870;52.320;4.970;2022-07-29T08:09:26;22.40;99.90
11629;DHT22;5870;52.320;4.970;2022-07-29T08:11:52;22.40;99.90
11629;DHT22;5870;52.320;4.970;2022-07-29T08:14:18;22.40;99.90
11629;DHT22;5870;52.320;4.970;2022-07-29T08:16:44;22.40;99.90
11629;DHT22;5870;52.320;4.970;2022-07-29T08:19:10;22.40;99.90
11629;DHT22;5870;52.320;4.970;2022-07-29T08:21:36;22.40;99.90
11629;DHT22;5870;52.320;4.970;2022-07-29T08:24:03;22.40;99.90
11629;DHT22;5870;52.320;4.970;2022-07-29T08:26:47;22.40;99.90
11629;DHT22;5870;52.320;4.970;2022-07-29T08:29:13;22.50;99.90
11629;DHT22;5870;52.320;4.970;2022-07-29T08:31:39;22.50;99.90
11629;DHT22;5870;52.320;4.970;2022-07-29T08:34:05;22.50;99.90
11629;DHT22;5870;52.320;4.970;2022-07-29T08:36:32;22.50;99.90
11629;DHT22;5870;52.320;4.970;2022-07-29T08:38:58;22.50;99.90
11629;DHT22;5870;52.320;4.970;2022-07-29T08:41:25;22.50;99.90
11629;DHT22;5870;52.320;4.970;2022-07-29T08:43:51;22.50;99.90
11629;DHT22;5870;52.320;4.970;2022-07-29T08:46:18;22.50;99.90
11629;DHT22;5870;52.320;4.970;2022-07-29T08:48:44;22.60;99.90
11629;DHT22;5870;52.320;4.970;2022-07-29T08:51:19;22.50;99.90
11629;DHT22;5870;52.320;4.970;2022-07-29T08:53:48;22.60;99.90
11629;DHT22;5870;52.320;4.970;2022-07-29T08:56:16;22.60;99.90
11629;DHT22;5870;52.320;4.970;2022-07-29T08:58:46;22.60;99.90
11629;DHT22;5870;52.320;4.970;2022-07-29T09:01:17;22.60;99.90
11629;DHT22;5870;52.320;4.970;2022-07-29T09:03:46;22.60;99.90
11629;DHT22;5870;52.320;4.970;2022-07-29T09:06:15;22.60;99.90
11629;DHT22;5870;52.320;4.970;2022-07-29T09:08:42;22.60;99.90
11629;DHT22;5870;52.320;4.970;2022-07-29T09:11:08;22.60;99.90
11629;DHT22;5870;52.320;4.970;2022-07-29T09:13:35;22.70;99.90
11629;DHT22;5870;52.320;4.970;2022-07-29T09:16:01;22.70;99.90
11629;DHT22;5870;52.320;4.970;2022-07-29T09:21:02;22.70;99.90
11629;DHT22;5870;52.320;4.970;2022-07-29T09:24:13;22.80;99.90
11629;DHT22;5870;52.320;4.970;2022-07-29T09:26:44;22.80;99.90
11629;DHT22;5870;52.320;4.970;2022-07-29T09:29:13;22.90;99.90
11629;DHT22;5870;52.320;4.970;2022-07-29T09:31:42;22.90;99.90
11629;DHT22;5870;52.320;4.970;2022-07-29T09:34:09;22.90;99.90
11629;DHT22;5870;52.320;4.970;2022-07-29T09:36:43;22.90;99.90
11629;DHT22;5870;52.320;4.970;2022-07-29T09:39:09;23.00;99.90
11629;DHT22;5870;52.320;4.970;2022-07-29T09:44:10;23.00;99.90
11629;DHT22;5870;52.320;4.970;2022-07-29T09:46:36;23.00;99.90
11629;DHT22;5870;52.320;4.970;2022-07-29T09:49:12;23.00;99.90
11629;DHT22;5870;52.320;4.970;2022-07-29T09:51:38;23.10;99.90
11629;DHT22;5870;52.320;4.970;2022-07-29T09:54:24;23.00;99.90
11629;DHT22;5870;52.320;4.970;2022-07-29T09:56:50;23.10;99.90
11629;DHT22;5870;52.320;4.970;2022-07-29T09:59:16;23.10;99.90
11629;DHT22;5870;52.320;4.970;2022-07-29T10:01:42;23.10;99.90
11629;DHT22;5870;52.320;4.970;2022-07-29T10:04:08;23.10;99.90
11629;DHT22;5870;52.320;4.970;2022-07-29T10:06:34;23.20;99.90
11629;DHT22;5870;52.320;4.970;2022-07-29T10:09:10;23.20;99.90
11629;DHT22;5870;52.320;4.970;2022-07-29T10:11:36;23.20;99.90
11629;DHT22;5870;52.320;4.970;2022-07-29T10:14:03;23.20;99.90
11629;DHT22;5870;52.320;4.970;2022-07-29T10:16:29;23.30;99.90
11629;DHT22;5870;52.320;4.970;2022-07-29T10:18:59;23.30;99.90
11629;DHT22;5870;52.320;4.970;2022-07-29T10:21:27;23.30;99.90
11629;DHT22;5870;52.320;4.970;2022-07-29T10:23:55;23.30;99.90
11629;DHT22;5870;52.320;4.970;2022-07-29T10:26:23;23.40;99.90
11629;DHT22;5870;52.320;4.970;2022-07-29T10:28:48;23.40;99.90
11629;DHT22;5870;52.320;4.970;2022-07-29T10:31:31;23.40;99.90
11629;DHT22;5870;52.320;4.970;2022-07-29T10:37:28;23.50;99.90
11629;DHT22;5870;52.320;4.970;2022-07-29T10:40:07;23.50;99.90
11629;DHT22;5870;52.320;4.970;2022-07-29T10:42:55;23.50;99.90
11629;DHT22;5870;52.320;4.970;2022-07-29T10:45:26;23.50;99.90
11629;DHT22;5870;52.320;4.970;2022-07-29T10:48:04;23.50;99.90
11629;DHT22;5870;52.320;4.970;2022-07-29T10:50:56;23.50;99.90
11629;DHT22;5870;52.320;4.970;2022-07-29T10:53:24;23.50;99.90
11629;DHT22;5870;52.320;4.970;2022-07-29T10:56:26;23.50;99.90
11629;DHT22;5870;52.320;4.970;2022-07-29T11:01:43;23.50;99.90
11629;DHT22;5870;52.320;4.970;2022-07-29T11:04:08;23.50;99.90
11629;DHT22;5870;52.320;4.970;2022-07-29T11:09:28;23.50;99.90
11629;DHT22;5870;52.320;4.970;2022-07-29T11:11:58;23.50;99.90
11629;DHT22;5870;52.320;4.970;2022-07-29T11:17:17;23.50;99.90
11629;DHT22;5870;52.320;4.970;2022-07-29T11:19:43;23.50;99.90
11629;DHT22;5870;52.320;4.970;2022-07-29T11:22:10;23.60;99.90
11629;DHT22;5870;52.320;4.970;2022-07-29T11:24:37;23.70;99.90
11629;DHT22;5870;52.320;4.970;2022-07-29T11:27:16;23.70;99.90
11629;DHT22;5870;52.320;4.970;2022-07-29T11:30:03;23.70;99.90
11629;DHT22;5870;52.320;4.970;2022-07-29T11:32:40;23.70;99.90
11629;DHT22;5870;52.320;4.970;2022-07-29T11:35:26;23.80;99.90
11629;DHT22;5870;52.320;4.970;2022-07-29T11:38:27;23.80;99.90
11629;DHT22;5870;52.320;4.970;2022-07-29T11:41:25;23.80;99.90
11629;DHT22;5870;52.320;4.970;2022-07-29T11:43:53;23.90;99.90
11629;DHT22;5870;52.320;4.970;2022-07-29T11:46:47;23.90;99.90
11629;DHT22;5870;52.320;4.970;2022-07-29T11:49:24;24.00;99.90
11629;DHT22;5870;52.320;4.970;2022-07-29T11:51:55;24.00;99.90
11629;DHT22;5870;52.320;4.970;2022-07-29T11:54:48;24.10;99.90
11629;DHT22;5870;52.320;4.970;2022-07-29T11:57:18;24.20;99.90
11629;DHT22;5870;52.320;4.970;2022-07-29T11:59:45;24.30;99.90
11629;DHT22;5870;52.320;4.970;2022-07-29T12:02:12;24.30;99.90
11629;DHT22;5870;52.320;4.970;2022-07-29T12:04:52;24.40;99.90
11629;DHT22;5870;52.320;4.970;2022-07-29T12:07:19;24.50;99.90
11629;DHT22;5870;52.320;4.970;2022-07-29T12:09:51;24.50;99.90
11629;DHT22;5870;52.320;4.970;2022-07-29T12:12:18;24.50;99.90
11629;DHT22;5870;52.320;4.970;2022-07-29T12:14:44;24.60;99.90
11629;DHT22;5870;52.320;4.970;2022-07-29T12:17:33;24.70;99.90
11629;DHT22;5870;52.320;4.970;2022-07-29T12:20:00;24.70;99.90
11629;DHT22;5870;52.320;4.970;2022-07-29T12:22:41;24.80;99.90
11629;DHT22;5870;52.320;4.970;2022-07-29T12:25:13;24.90;99.90
11629;DHT22;5870;52.320;4.970;2022-07-29T12:27:44;24.90;99.90
11629;DHT22;5870;52.320;4.970;2022-07-29T12:30:14;25.00;99.90
11629;DHT22;5870;52.320;4.970;2022-07-29T12:32:45;25.10;99.90
11629;DHT22;5870;52.320;4.970;2022-07-29T12:35:16;25.10;99.90
11629;DHT22;5870;52.320;4.970;2022-07-29T12:37:44;25.20;99.90
11629;DHT22;5870;52.320;4.970;2022-07-29T12:40:12;25.30;99.90
11629;DHT22;5870;52.320;4.970;2022-07-29T12:42:39;25.30;99.90
11629;DHT22;5870;52.320;4.970;2022-07-29T12:45:05;25.40;99.90
11629;DHT22;5870;52.320;4.970;2022-07-29T12:47:31;25.50;99.90
11629;DHT22;5870;52.320;4.970;2022-07-29T12:50:14;25.60;99.90
11629;DHT22;5870;52.320;4.970;2022-07-29T12:52:43;25.70;99.90
11629;DHT22;5870;52.320;4.970;2022-07-29T12:55:09;25.70;99.90
11629;DHT22;5870;52.320;4.970;2022-07-29T12:57:46;25.80;99.90
11629;DHT22;5870;52.320;4.970;2022-07-29T13:00:13;25.90;99.90
11629;DHT22;5870;52.320;4.970;2022-07-29T13:02:40;25.90;99.90
11629;DHT22;5870;52.320;4.970;2022-07-29T13:05:07;26.00;99.90
11629;DHT22;5870;52.320;4.970;2022-07-29T13:07:37;26.10;99.90
11629;DHT22;5870;52.320;4.970;2022-07-29T13:10:18;26.20;99.90
11629;DHT22;5870;52.320;4.970;2022-07-29T13:13:09;26.30;99.70
11629;DHT22;5870;52.320;4.970;2022-07-29T13:15:41;26.40;99.60
11629;DHT22;5870;52.320;4.970;2022-07-29T13:18:30;26.40;99.40
11629;DHT22;5870;52.320;4.970;2022-07-29T13:20:56;26.50;99.20
11629;DHT22;5870;52.320;4.970;2022-07-29T13:23:22;26.60;99.20
11629;DHT22;5870;52.320;4.970;2022-07-29T13:25:48;26.70;99.10
11629;DHT22;5870;52.320;4.970;2022-07-29T13:28:13;26.80;99.00
11629;DHT22;5870;52.320;4.970;2022-07-29T13:30:39;26.90;98.70
11629;DHT22;5870;52.320;4.970;2022-07-29T13:33:06;27.00;98.40
11629;DHT22;5870;52.320;4.970;2022-07-29T13:35:32;27.10;98.40
11629;DHT22;5870;52.320;4.970;2022-07-29T13:37:57;27.20;98.20
11629;DHT22;5870;52.320;4.970;2022-07-29T13:40:23;27.40;98.10
11629;DHT22;5870;52.320;4.970;2022-07-29T13:42:49;27.40;98.00
11629;DHT22;5870;52.320;4.970;2022-07-29T13:45:15;27.50;97.90
11629;DHT22;5870;52.320;4.970;2022-07-29T13:47:41;27.60;98.10
11629;DHT22;5870;52.320;4.970;2022-07-29T13:50:08;27.70;97.70
11629;DHT22;5870;52.320;4.970;2022-07-29T13:52:35;27.80;97.60
11629;DHT22;5870;52.320;4.970;2022-07-29T13:55:02;27.90;97.40
11629;DHT22;5870;52.320;4.970;2022-07-29T13:57:27;28.00;97.10
11629;DHT22;5870;52.320;4.970;2022-07-29T13:59:53;28.10;96.80
11629;DHT22;5870;52.320;4.970;2022-07-29T14:02:19;28.20;96.70
11629;DHT22;5870;52.320;4.970;2022-07-29T14:04:44;28.30;96.50
11629;DHT22;5870;52.320;4.970;2022-07-29T14:07:10;28.40;96.30
11629;DHT22;5870;52.320;4.970;2022-07-29T14:09:36;28.60;96.20
11629;DHT22;5870;52.320;4.970;2022-07-29T14:12:02;28.70;96.00
11629;DHT22;5870;52.320;4.970;2022-07-29T14:14:28;28.80;96.10
11629;DHT22;5870;52.320;4.970;2022-07-29T14:16:54;28.90;95.70
11629;DHT22;5870;52.320;4.970;2022-07-29T14:19:20;29.00;95.50
11629;DHT22;5870;52.320;4.970;2022-07-29T14:21:45;29.10;95.40
11629;DHT22;5870;52.320;4.970;2022-07-29T14:24:11;29.20;95.30
11629;DHT22;5870;52.320;4.970;2022-07-29T14:26:37;29.30;95.20
11629;DHT22;5870;52.320;4.970;2022-07-29T14:29:02;29.40;95.10
11629;DHT22;5870;52.320;4.970;2022-07-29T14:31:28;29.50;95.00
11629;DHT22;5870;52.320;4.970;2022-07-29T14:33:53;29.60;94.90
11629;DHT22;5870;52.320;4.970;2022-07-29T14:36:19;29.70;94.70
11629;DHT22;5870;52.320;4.970;2022-07-29T14:38:44;29.70;94.50
11629;DHT22;5870;52.320;4.970;2022-07-29T14:41:10;29.80;94.50
11629;DHT22;5870;52.320;4.970;2022-07-29T14:43:36;29.90;94.30
11629;DHT22;5870;52.320;4.970;2022-07-29T14:46:01;29.90;94.10
11629;DHT22;5870;52.320;4.970;2022-07-29T14:48:27;30.00;94.00
11629;DHT22;5870;52.320;4.970;2022-07-29T14:50:53;30.00;93.90
11629;DHT22;5870;52.320;4.970;2022-07-29T14:53:20;30.10;93.80
11629;DHT22;5870;52.320;4.970;2022-07-29T14:55:45;30.10;93.70
11629;DHT22;5870;52.320;4.970;2022-07-29T14:58:11;30.20;93.60
11629;DHT22;5870;52.320;4.970;2022-07-29T15:00:36;30.30;93.70
11629;DHT22;5870;52.320;4.970;2022-07-29T15:03:03;30.40;93.60
11629;DHT22;5870;52.320;4.970;2022-07-29T15:05:32;30.50;93.50
11629;DHT22;5870;52.320;4.970;2022-07-29T15:07:58;30.60;93.30
11629;DHT22;5870;52.320;4.970;2022-07-29T15:10:24;30.60;93.10
11629;DHT22;5870;52.320;4.970;2022-07-29T15:12:52;30.70;93.10
11629;DHT22;5870;52.320;4.970;2022-07-29T15:15:18;30.70;92.90
11629;DHT22;5870;52.320;4.970;2022-07-29T15:17:44;30.80;92.90
11629;DHT22;5870;52.320;4.970;2022-07-29T15:20:10;30.80;92.80
11629;DHT22;5870;52.320;4.970;2022-07-29T15:22:37;30.90;92.70
11629;DHT22;5870;52.320;4.970;2022-07-29T15:25:04;31.00;92.70
11629;DHT22;5870;52.320;4.970;2022-07-29T15:27:29;31.00;92.50
11629;DHT22;5870;52.320;4.970;2022-07-29T15:29:55;31.00;92.30
11629;DHT22;5870;52.320;4.970;2022-07-29T15:32:21;31.10;92.20
11629;DHT22;5870;52.320;4.970;2022-07-29T15:34:46;31.10;92.20
11629;DHT22;5870;52.320;4.970;2022-07-29T15:37:12;31.20;92.20
11629;DHT22;5870;52.320;4.970;2022-07-29T15:39:38;31.20;92.20
11629;DHT22;5870;52.320;4.970;2022-07-29T15:42:04;31.30;92.00
11629;DHT22;5870;52.320;4.970;2022-07-29T15:44:29;31.20;92.30
11629;DHT22;5870;52.320;4.970;2022-07-29T15:46:55;31.10;91.90
11629;DHT22;5870;52.320;4.970;2022-07-29T15:49:30;31.10;92.00
11629;DHT22;5870;52.320;4.970;2022-07-29T15:52:01;31.00;92.20
11629;DHT22;5870;52.320;4.970;2022-07-29T15:54:28;31.10;92.20
11629;DHT22;5870;52.320;4.970;2022-07-29T15:56:55;31.10;92.00
11629;DHT22;5870;52.320;4.970;2022-07-29T15:59:21;31.20;92.00
11629;DHT22;5870;52.320;4.970;2022-07-29T16:01:47;31.20;91.80
11629;DHT22;5870;52.320;4.970;2022-07-29T16:04:13;31.30;91.80
11629;DHT22;5870;52.320;4.970;2022-07-29T16:06:39;31.30;91.70
11629;DHT22;5870;52.320;4.970;2022-07-29T16:09:05;31.30;91.70
11629;DHT22;5870;52.320;4.970;2022-07-29T16:11:30;31.30;91.60
11629;DHT22;5870;52.320;4.970;2022-07-29T16:13:56;31.30;91.60
11629;DHT22;5870;52.320;4.970;2022-07-29T16:16:21;31.30;91.70